createdAt,value
2022-08-10T00:00:08.599Z,17.50
2022-08-10T00:02:37.130Z,16.27
2022-08-10T00:05:06.576Z,16.45
2022-08-10T00:07:35.348Z,16.98
2022-08-10T00:15:52.729Z,17.10
2022-08-10T00:23:30.027Z,17.83
2022-08-10T01:23:29.028Z,17.52
2022-08-10T01:26:30.606Z,16.35
2022-08-10T01:49:25.772Z,17.47
2022-08-10T01:51:56.243Z,17.52
2022-08-10T01:59:32.291Z,16.83
2022-08-10T02:02:04.880Z,16.27
2022-08-10T02:04:35.902Z,16.23
2022-08-10T02:07:04.802Z,16.30
2022-08-10T02:09:40.362Z,16.58
2022-08-10T02:12:12.285Z,16.75
2022-08-10T02:14:43.817Z,17.58
2022-08-10T02:22:36.729Z,17.30
2022-08-10T02:30:35.698Z,16.33
2022-08-10T02:33:05.828Z,17.33
2022-08-10T02:54:53.524Z,16.58
2022-08-10T02:59:58.795Z,15.80
2022-08-10T03:02:30.990Z,15.88
2022-08-10T03:12:44.490Z,15.75
2022-08-10T03:20:37.830Z,15.43
2022-08-10T03:28:07.812Z,18.02
2022-08-10T03:30:37.207Z,16.70
2022-08-10T03:33:07.498Z,16.67
2022-08-10T03:45:54.471Z,18.13
2022-08-10T03:56:29.667Z,17.77
2022-08-10T03:58:58.953Z,17.25
2022-08-10T04:11:51.714Z,18.35
2022-08-10T04:27:13.121Z,16.25
2022-08-10T04:44:35.541Z,17.03
2022-08-10T04:47:03.776Z,16.73
2022-08-10T04:49:55.050Z,16.40
2022-08-10T05:22:35.104Z,15.10
2022-08-10T05:25:06.158Z,14.73
2022-08-10T05:27:34.672Z,16.02
2022-08-10T05:32:55.385Z,14.80
2022-08-10T05:35:21.168Z,15.35
2022-08-10T05:38:10.693Z,20.60
2022-08-10T05:40:46.136Z,16.38
2022-08-10T05:43:17.046Z,16.13
2022-08-10T05:46:17.102Z,14.13
2022-08-10T05:48:55.571Z,13.90
2022-08-10T05:51:23.101Z,14.45
2022-08-10T05:54:02.155Z,15.10
2022-08-10T05:56:54.698Z,14.10
2022-08-10T06:00:34.335Z,14.73
2022-08-10T06:02:31.095Z,14.43
2022-08-10T06:05:11.045Z,14.70
2022-08-10T06:07:42.276Z,14.57
2022-08-10T06:10:13.734Z,14.85
2022-08-10T06:12:54.161Z,15.10
2022-08-10T06:15:51.601Z,15.60
2022-08-10T06:18:14.547Z,14.88
2022-08-10T06:20:43.579Z,14.45
2022-08-10T06:23:13.037Z,15.48
2022-08-10T06:26:08.636Z,15.57
2022-08-10T06:28:34.629Z,19.25
2022-08-10T06:31:04.089Z,17.30
2022-08-10T06:33:34.837Z,16.98
2022-08-10T06:36:06.419Z,16.50
2022-08-10T06:38:36.145Z,17.05
2022-08-10T06:41:09.572Z,18.52
2022-08-10T06:43:42.723Z,18.15
2022-08-10T06:46:16.701Z,18.80
2022-08-10T06:48:50.128Z,17.73
2022-08-10T06:51:22.802Z,20.98
2022-08-10T06:53:56.533Z,19.45
2022-08-10T06:56:37.402Z,20.13
2022-08-10T06:59:13.247Z,21.33
2022-08-10T07:01:53.806Z,46.20
2022-08-10T07:04:33.327Z,45.10
2022-08-10T07:07:05.040Z,42.55
2022-08-10T07:09:36.401Z,45.70
2022-08-10T07:12:08.393Z,45.17
2022-08-10T07:14:42.602Z,46.13
2022-08-10T07:17:15.747Z,45.17
2022-08-10T07:19:50.263Z,48.35
2022-08-10T07:23:22.905Z,46.72
2022-08-10T07:25:11.873Z,44.42
2022-08-10T07:28:00.151Z,47.50
2022-08-10T07:30:32.533Z,43.97
2022-08-10T07:33:02.236Z,43.47
2022-08-10T07:35:41.881Z,45.65
2022-08-10T07:38:18.265Z,46.38
2022-08-10T07:40:49.706Z,47.20
2022-08-10T07:43:18.838Z,48.05
2022-08-10T07:45:49.465Z,48.15
2022-08-10T07:48:20.862Z,50.22
2022-08-10T07:50:50.415Z,49.63
2022-08-10T07:53:21.951Z,48.55
2022-08-10T07:56:05.641Z,49.28
2022-08-10T07:58:46.377Z,49.25
2022-08-10T08:01:25.064Z,51.92
2022-08-10T08:04:05.674Z,48.60
2022-08-10T08:06:42.463Z,49.88
2022-08-10T08:09:11.458Z,50.45
2022-08-10T08:11:42.078Z,48.65
2022-08-10T08:14:11.282Z,49.08
2022-08-10T08:16:45.067Z,56.28
2022-08-10T08:19:37.941Z,55.47
2022-08-10T08:24:08.726Z,53.25
2022-08-10T08:24:52.266Z,53.30
2022-08-10T08:27:22.207Z,56.25
2022-08-10T08:29:52.153Z,54.67
2022-08-10T08:32:23.750Z,54.20
2022-08-10T08:34:56.353Z,54.55
2022-08-10T08:38:32.720Z,58.53
2022-08-10T08:40:19.793Z,56.03
2022-08-10T08:43:31.393Z,56.72
2022-08-10T08:46:14.318Z,57.25
2022-08-10T08:50:08.176Z,54.95
2022-08-10T08:52:21.195Z,55.38
2022-08-10T08:54:59.410Z,58.15
2022-08-10T08:57:49.672Z,52.38
2022-08-10T09:00:26.204Z,52.35
2022-08-10T09:03:22.929Z,55.70
2022-08-10T09:06:07.131Z,54.53
2022-08-10T09:09:11.191Z,55.15
2022-08-10T09:11:55.540Z,56.80
2022-08-10T09:14:31.693Z,52.75
2022-08-10T09:17:10.721Z,53.88
2022-08-10T09:19:48.152Z,51.75
2022-08-10T09:22:27.137Z,53.08
2022-08-10T09:25:01.902Z,54.78
2022-08-10T09:27:37.494Z,52.75
2022-08-10T09:30:08.410Z,54.17
2022-08-10T09:36:16.525Z,55.25
2022-08-10T09:36:29.930Z,55.28
2022-08-10T09:38:38.833Z,55.92
2022-08-10T09:41:18.204Z,54.83
2022-08-10T09:43:56.068Z,55.45
2022-08-10T09:46:43.501Z,56.03
2022-08-10T09:49:25.883Z,63.83
2022-08-10T09:52:16.198Z,58.85
2022-08-10T09:54:55.093Z,56.13
2022-08-10T09:57:56.942Z,55.20
2022-08-10T10:00:31.774Z,54.33
2022-08-10T10:03:09.960Z,57.10
2022-08-10T10:05:50.264Z,56.53
2022-08-10T10:08:27.774Z,56.45
2022-08-10T10:11:03.914Z,56.95
2022-08-10T10:14:03.135Z,57.00
2022-08-10T10:16:43.099Z,57.88
2022-08-10T10:19:25.723Z,54.85
2022-08-10T10:22:01.203Z,55.15
2022-08-10T10:24:39.270Z,55.60
2022-08-10T10:27:20.041Z,57.65
2022-08-10T10:29:59.370Z,55.78
2022-08-10T10:32:40.081Z,56.38
2022-08-10T10:35:17.242Z,57.83
2022-08-10T10:38:00.758Z,58.28
2022-08-10T10:40:40.894Z,56.22
2022-08-10T10:43:21.104Z,56.85
2022-08-10T10:46:04.480Z,57.33
2022-08-10T10:48:41.413Z,56.58
2022-08-10T10:51:17.227Z,60.50
2022-08-10T10:53:50.844Z,59.67
2022-08-10T10:56:27.591Z,59.60
2022-08-10T10:59:33.422Z,59.72
2022-08-10T11:02:13.998Z,60.75
2022-08-10T11:04:48.040Z,60.17
2022-08-10T11:07:23.797Z,59.08
2022-08-10T11:10:32.064Z,59.35
2022-08-10T11:13:06.141Z,57.88
2022-08-10T11:15:58.709Z,57.42
2022-08-10T11:18:40.337Z,59.17
2022-08-10T11:21:17.099Z,57.58
2022-08-10T11:24:46.817Z,57.35
2022-08-10T11:26:50.709Z,57.10
2022-08-10T11:29:25.439Z,58.05
2022-08-10T11:32:01.152Z,57.00
2022-08-10T11:34:49.234Z,57.85
2022-08-10T11:38:31.303Z,57.30
2022-08-10T11:40:29.394Z,56.88
2022-08-10T11:43:09.117Z,57.20
2022-08-10T11:45:51.569Z,57.38
2022-08-10T11:48:54.545Z,56.80
2022-08-10T11:51:29.774Z,61.42
2022-08-10T11:54:06.376Z,58.20
2022-08-10T11:56:45.800Z,58.50
2022-08-10T11:59:32.610Z,59.08
2022-08-10T12:02:01.658Z,57.90
2022-08-10T12:04:32.521Z,58.85
2022-08-10T12:10:01.605Z,60.50
2022-08-10T12:10:09.526Z,58.97
2022-08-10T12:13:03.406Z,58.92
2022-08-10T12:15:40.001Z,60.17
2022-08-10T12:18:15.061Z,59.72
2022-08-10T12:20:48.640Z,56.95
2022-08-10T12:23:23.544Z,58.13
2022-08-10T12:25:58.631Z,59.45
2022-08-10T12:28:49.422Z,60.63
2022-08-10T12:31:25.422Z,60.38
2022-08-10T12:34:07.213Z,59.33
2022-08-10T12:36:40.757Z,59.67
2022-08-10T12:39:16.501Z,57.75
2022-08-10T12:41:52.390Z,56.45
2022-08-10T12:44:41.012Z,57.75
2022-08-10T12:47:20.116Z,59.60
2022-08-10T12:50:29.531Z,59.58
2022-08-10T12:52:52.518Z,58.97
2022-08-10T12:55:23.944Z,55.17
2022-08-10T12:57:55.095Z,54.22
2022-08-10T13:00:32.786Z,54.47
2022-08-10T13:03:04.814Z,54.30
2022-08-10T13:05:54.708Z,46.47
2022-08-10T13:08:40.525Z,52.30
2022-08-10T13:12:34.264Z,52.63
2022-08-10T13:14:10.241Z,52.80
2022-08-10T13:16:39.424Z,49.33
2022-08-10T13:19:08.722Z,55.33
2022-08-10T13:21:38.760Z,50.33
2022-08-10T13:24:11.947Z,54.90
2022-08-10T13:27:24.887Z,51.08
2022-08-10T13:29:44.305Z,56.75
2022-08-10T13:32:22.279Z,57.97
2022-08-10T13:34:52.796Z,57.40
2022-08-10T13:37:24.317Z,55.17
2022-08-10T13:39:58.903Z,57.50
2022-08-10T13:42:33.965Z,56.75
2022-08-10T13:45:09.956Z,57.38
2022-08-10T13:47:48.512Z,54.97
2022-08-10T13:50:35.433Z,49.97
2022-08-10T13:53:14.358Z,49.47
2022-08-10T13:55:55.009Z,48.63
2022-08-10T13:58:27.536Z,51.55
2022-08-10T14:00:57.186Z,45.80
2022-08-10T14:03:26.897Z,50.92
2022-08-10T14:05:56.664Z,51.78
2022-08-10T14:08:27.607Z,51.72
2022-08-10T14:11:09.939Z,50.22
2022-08-10T14:13:46.489Z,50.67
2022-08-10T14:16:15.471Z,53.17
2022-08-10T14:18:46.027Z,50.60
2022-08-10T14:21:15.858Z,51.33
2022-08-10T14:23:51.897Z,50.65
2022-08-10T14:26:24.521Z,51.03
2022-08-10T14:28:56.087Z,47.42
2022-08-10T14:31:34.029Z,48.10
2022-08-10T14:34:08.293Z,49.20
2022-08-10T14:36:42.850Z,52.28
2022-08-10T14:39:15.847Z,52.83
2022-08-10T14:42:00.869Z,50.83
2022-08-10T14:44:44.820Z,49.53
2022-08-10T14:47:54.195Z,49.38
2022-08-10T14:50:05.396Z,50.35
2022-08-10T14:52:45.309Z,46.80
2022-08-10T14:55:19.848Z,53.67
2022-08-10T14:58:19.042Z,54.85
2022-08-10T15:00:43.083Z,50.88
2022-08-10T15:03:58.425Z,51.95
2022-08-10T15:06:17.039Z,51.75
2022-08-10T15:08:48.339Z,53.90
2022-08-10T15:12:12.222Z,55.80
2022-08-10T15:14:41.636Z,56.90
2022-08-10T15:16:59.526Z,52.88
2022-08-10T15:20:01.550Z,54.42
2022-08-10T15:22:36.443Z,52.80
2022-08-10T15:25:17.790Z,51.05
2022-08-10T15:27:53.509Z,50.42
2022-08-10T15:30:30.104Z,51.55
2022-08-10T15:33:21.559Z,57.58
2022-08-10T15:36:28.068Z,58.28
2022-08-10T15:39:00.978Z,56.47
2022-08-10T15:41:58.852Z,53.83
2022-08-10T15:44:39.088Z,72.97
2022-08-10T15:47:12.053Z,55.25
2022-08-10T15:49:50.584Z,56.58
2022-08-10T15:52:39.434Z,57.20
2022-08-10T15:55:41.863Z,57.97
2022-08-10T15:58:08.619Z,57.03
2022-08-10T16:00:45.276Z,56.75
2022-08-10T16:03:18.221Z,60.58
2022-08-10T16:06:02.636Z,60.70
2022-08-10T16:08:55.947Z,62.15
2022-08-10T16:11:38.114Z,60.83
2022-08-10T16:14:17.657Z,60.42
2022-08-10T16:16:51.553Z,60.72
2022-08-10T16:19:25.372Z,62.40
2022-08-10T16:22:35.853Z,58.00
2022-08-10T16:24:55.113Z,60.60
2022-08-10T16:27:27.059Z,59.05
2022-08-10T16:29:59.792Z,59.10
2022-08-10T16:32:30.066Z,59.22
2022-08-10T16:34:59.227Z,59.42
2022-08-10T16:37:58.703Z,58.13
2022-08-10T16:40:26.577Z,58.08
2022-08-10T16:42:55.735Z,62.83
2022-08-10T16:45:32.766Z,60.13
2022-08-10T16:48:01.604Z,59.58
2022-08-10T16:50:32.103Z,60.42
2022-08-10T16:53:03.482Z,62.47
2022-08-10T16:55:47.576Z,63.17
2022-08-10T16:58:21.964Z,62.08
2022-08-10T17:00:51.998Z,18.00
2022-08-10T17:04:09.396Z,15.50
2022-08-10T17:06:20.529Z,15.48
2022-08-10T17:08:53.568Z,30.67
2022-08-10T17:11:23.910Z,14.90
2022-08-10T17:13:55.912Z,16.67
2022-08-10T17:16:25.470Z,16.92
2022-08-10T17:18:55.818Z,16.20
2022-08-10T17:21:29.433Z,17.33
2022-08-10T17:24:03.234Z,17.02
2022-08-10T17:26:37.413Z,16.98
2022-08-10T17:29:54.122Z,16.83
2022-08-10T17:32:08.067Z,17.20
2022-08-10T17:34:41.002Z,17.23
2022-08-10T17:37:16.761Z,17.08
2022-08-10T17:39:50.975Z,17.52
2022-08-10T17:42:21.891Z,16.73
2022-08-10T17:44:52.734Z,16.73
2022-08-10T17:47:21.960Z,17.33
2022-08-10T17:49:55.330Z,17.15
2022-08-10T17:52:25.992Z,18.33
2022-08-10T17:55:04.017Z,17.40
2022-08-10T17:57:37.134Z,17.35
2022-08-10T18:00:08.134Z,17.38
2022-08-10T18:02:40.264Z,16.77
2022-08-10T18:05:11.033Z,17.13
2022-08-10T18:07:44.648Z,17.10
2022-08-10T18:10:18.106Z,16.92
2022-08-10T18:12:48.668Z,17.55
2022-08-10T18:15:19.954Z,18.02
2022-08-10T18:17:51.067Z,14.88
2022-08-10T18:20:27.814Z,17.58
2022-08-10T18:22:58.444Z,17.63
2022-08-10T18:25:32.811Z,17.35
2022-08-10T18:28:05.490Z,17.20
2022-08-10T18:30:45.387Z,17.75
2022-08-10T18:33:16.121Z,18.13
2022-08-10T18:35:46.683Z,17.98
2022-08-10T18:38:17.294Z,18.98
2022-08-10T18:41:04.503Z,18.83
2022-08-10T18:44:07.849Z,18.40
2022-08-10T18:46:30.803Z,18.77
2022-08-10T18:49:04.875Z,19.30
2022-08-10T18:51:46.420Z,19.38
2022-08-10T18:54:39.894Z,19.92
2022-08-10T18:57:18.853Z,18.73
2022-08-10T19:00:08.622Z,18.85
2022-08-10T19:03:07.306Z,18.52
2022-08-10T19:06:04.367Z,18.27
2022-08-10T19:09:47.338Z,18.40
2022-08-10T19:12:30.082Z,19.65
2022-08-10T19:15:09.866Z,19.50
2022-08-10T19:18:06.215Z,18.35
2022-08-10T19:20:37.188Z,17.83
2022-08-10T19:23:18.728Z,19.25
2022-08-10T19:26:41.368Z,19.77
2022-08-10T19:28:57.792Z,18.90
2022-08-10T19:31:43.861Z,20.55
2022-08-10T19:34:27.887Z,19.30
2022-08-10T19:37:08.373Z,18.90
2022-08-10T19:39:51.476Z,19.10
2022-08-10T19:42:30.976Z,18.92
2022-08-10T19:45:04.974Z,19.58
2022-08-10T19:47:39.573Z,19.35
2022-08-10T19:50:14.523Z,19.40
2022-08-10T19:52:50.552Z,19.45
2022-08-10T19:55:26.849Z,19.40
2022-08-10T19:58:02.271Z,19.95
2022-08-10T20:00:40.226Z,18.98
2022-08-10T20:03:17.917Z,18.75
2022-08-10T20:06:18.054Z,18.27
2022-08-10T20:08:53.830Z,19.05
2022-08-10T20:11:46.013Z,18.90
2022-08-10T20:14:21.999Z,18.42
2022-08-10T20:16:53.571Z,18.73
2022-08-10T20:19:52.778Z,19.00
2022-08-10T20:22:29.218Z,18.50
2022-08-10T20:25:02.579Z,18.67
2022-08-10T20:27:57.855Z,18.35
2022-08-10T20:30:30.906Z,19.23
2022-08-10T20:33:07.886Z,18.65
2022-08-10T20:35:49.513Z,18.42
2022-08-10T20:38:27.361Z,17.73
2022-08-10T20:41:07.253Z,18.25
2022-08-10T20:43:41.986Z,17.75
2022-08-10T20:46:18.769Z,17.80
2022-08-10T20:48:56.817Z,17.38
2022-08-10T20:51:59.021Z,17.20
2022-08-10T20:54:21.348Z,17.63
2022-08-10T20:56:59.506Z,18.02
2022-08-10T21:00:04.472Z,18.75
2022-08-10T21:02:50.909Z,17.35
2022-08-10T21:05:26.517Z,18.08
2022-08-10T21:08:03.355Z,18.17
2022-08-10T21:10:57.666Z,17.17
2022-08-10T21:13:48.436Z,17.95
2022-08-10T21:16:29.881Z,17.90
2022-08-10T21:19:22.437Z,17.50
2022-08-10T21:22:08.577Z,17.70
2022-08-10T21:24:45.031Z,17.48
2022-08-10T21:27:22.566Z,17.75
2022-08-10T21:30:08.530Z,18.85
2022-08-10T21:32:48.791Z,17.75
2022-08-10T21:35:36.704Z,17.85
2022-08-10T21:38:16.831Z,17.67
2022-08-10T21:41:57.385Z,18.17
2022-08-10T21:44:42.285Z,18.10
2022-08-10T21:48:07.146Z,17.73
2022-08-10T21:51:05.766Z,18.80
2022-08-10T21:53:57.395Z,18.05
2022-08-10T21:56:50.332Z,17.90
2022-08-10T21:59:47.920Z,18.48
2022-08-10T22:02:40.458Z,18.20
2022-08-10T22:05:42.382Z,17.83
2022-08-10T22:08:30.082Z,17.73
2022-08-10T22:11:17.665Z,17.88
2022-08-10T22:14:09.630Z,18.00
2022-08-10T22:17:59.169Z,17.15
2022-08-10T22:20:25.028Z,18.13
2022-08-10T22:23:28.574Z,17.98
2022-08-10T22:26:27.817Z,17.05
2022-08-10T22:29:18.549Z,19.00
2022-08-10T22:32:15.694Z,17.13
2022-08-10T22:35:14.780Z,17.35
2022-08-10T22:38:14.121Z,17.85
2022-08-10T22:41:03.410Z,18.02
2022-08-10T22:43:51.781Z,17.95
2022-08-10T22:46:45.983Z,19.40
2022-08-10T22:49:13.537Z,18.42
2022-08-10T22:51:50.132Z,18.23
2022-08-10T22:54:41.576Z,17.48
2022-08-10T22:57:31.825Z,17.92
2022-08-10T23:00:00.464Z,17.80
2022-08-10T23:02:35.045Z,17.83
2022-08-10T23:05:09.459Z,19.15
2022-08-10T23:07:46.780Z,18.80
2022-08-10T23:10:16.738Z,17.67
2022-08-10T23:12:49.310Z,17.98
2022-08-10T23:15:40.179Z,18.33
2022-08-10T23:18:32.936Z,18.08
2022-08-10T23:21:02.216Z,17.83
2022-08-10T23:23:36.385Z,17.77
2022-08-10T23:26:06.188Z,18.23
2022-08-10T23:28:58.439Z,18.10
2022-08-10T23:31:59.263Z,17.20
2022-08-10T23:34:23.568Z,17.85
2022-08-10T23:36:52.955Z,17.30
2022-08-10T23:39:28.269Z,17.88
2022-08-10T23:42:03.278Z,17.70
2022-08-10T23:44:38.920Z,17.83
2022-08-10T23:47:08.055Z,18.10
2022-08-10T23:49:40.093Z,19.08
2022-08-10T23:52:13.870Z,18.23
2022-08-10T23:54:47.809Z,18.20
2022-08-10T23:57:18.793Z,17.58
2022-08-10T23:59:55.821Z,17.52
